createdAt,value
2019-01-11T00:02:23.431Z,4.66
2019-01-11T00:04:52.968Z,4.58
2019-01-11T00:07:22.398Z,4.61
2019-01-11T00:09:51.772Z,4.67
2019-01-11T00:12:21.290Z,4.46
2019-01-11T00:14:50.694Z,4.51
2019-01-11T00:17:20.083Z,4.57
2019-01-11T00:19:49.520Z,4.66
2019-01-11T00:22:18.915Z,4.72
2019-01-11T00:24:48.292Z,4.74
2019-01-11T00:27:17.861Z,4.69
2019-01-11T00:29:47.273Z,4.60
2019-01-11T00:32:16.693Z,4.62
2019-01-11T00:34:46.227Z,4.72
2019-01-11T00:37:15.608Z,4.79
2019-01-11T00:39:45.017Z,4.78
2019-01-11T00:42:14.463Z,4.60
2019-01-11T00:44:43.944Z,4.58
2019-01-11T00:47:13.371Z,4.59
2019-01-11T00:49:42.822Z,4.55
2019-01-11T00:52:12.215Z,4.60
2019-01-11T00:54:41.615Z,4.63
2019-01-11T00:57:11.202Z,4.80
2019-01-11T00:59:40.532Z,4.83
2019-01-11T01:02:09.927Z,4.80
2019-01-11T01:04:39.478Z,4.67
2019-01-11T01:07:09.081Z,4.81
2019-01-11T01:09:38.543Z,4.75
2019-01-11T01:12:08.231Z,4.72
2019-01-11T01:14:37.662Z,4.60
2019-01-11T01:17:07.143Z,4.72
2019-01-11T01:19:36.999Z,4.85
2019-01-11T01:22:06.530Z,4.77
2019-01-11T01:24:35.982Z,4.81
2019-01-11T01:27:05.825Z,4.83
2019-01-11T01:29:35.236Z,4.78
2019-01-11T01:32:04.915Z,4.84
2019-01-11T01:34:34.371Z,4.81
2019-01-11T01:37:03.902Z,4.87
2019-01-11T01:39:33.296Z,4.76
2019-01-11T01:42:02.836Z,4.76
2019-01-11T01:44:32.229Z,4.83
2019-01-11T01:47:01.634Z,4.77
2019-01-11T01:49:31.240Z,4.87
2019-01-11T01:52:01.020Z,4.87
2019-01-11T01:54:31.139Z,4.81
2019-01-11T01:57:01.124Z,4.83
2019-01-11T01:59:30.998Z,4.84
2019-01-11T02:02:00.986Z,4.87
2019-01-11T02:04:31.053Z,5.02
2019-01-11T02:07:01.015Z,5.12
2019-01-11T02:09:31.211Z,5.20
2019-01-11T02:12:01.156Z,5.19
2019-01-11T02:14:30.998Z,5.12
2019-01-11T02:17:01.011Z,5.04
2019-01-11T02:19:33.074Z,4.99
2019-01-11T02:22:02.316Z,4.96
2019-01-11T02:24:31.704Z,5.07
2019-01-11T02:27:01.148Z,5.15
2019-01-11T02:29:31.024Z,5.17
2019-01-11T02:32:01.050Z,5.24
2019-01-11T02:34:31.199Z,5.27
2019-01-11T02:37:01.028Z,5.33
2019-01-11T02:39:31.043Z,5.33
2019-01-11T02:42:01.069Z,5.42
2019-01-11T02:44:32.631Z,5.40
2019-01-11T02:47:02.144Z,5.38
2019-01-11T02:49:39.777Z,5.44
2019-01-11T02:52:02.799Z,5.39
2019-01-11T02:54:32.219Z,5.42
2019-01-11T02:57:01.664Z,5.38
2019-01-11T02:59:31.074Z,5.43
2019-01-11T03:02:01.094Z,5.50
2019-01-11T03:04:31.260Z,5.57
2019-01-11T03:07:01.101Z,5.63
2019-01-11T03:09:31.104Z,5.62
2019-01-11T03:12:01.386Z,5.70
2019-01-11T03:14:31.594Z,5.62
2019-01-11T03:17:01.101Z,5.63
2019-01-11T03:19:31.284Z,5.72
2019-01-11T03:22:01.214Z,5.78
2019-01-11T03:24:31.125Z,5.69
2019-01-11T03:27:01.264Z,5.66
2019-01-11T03:29:31.115Z,5.67
2019-01-11T03:32:01.129Z,5.69
2019-01-11T03:34:32.267Z,5.64
2019-01-11T03:37:01.649Z,5.64
2019-01-11T03:39:31.168Z,5.62
2019-01-11T03:42:13.310Z,5.74
2019-01-11T03:44:42.724Z,5.79
2019-01-11T03:47:12.164Z,5.66
2019-01-11T03:49:41.772Z,5.64
2019-01-11T03:52:11.161Z,5.65
2019-01-11T03:54:40.580Z,5.60
2019-01-11T03:57:10.045Z,5.58
2019-01-11T03:59:39.490Z,5.71
2019-01-11T04:02:08.916Z,5.73
2019-01-11T04:04:38.469Z,5.79
2019-01-11T04:07:07.914Z,5.88
2019-01-11T04:09:37.385Z,5.85
2019-01-11T04:12:06.933Z,5.78
2019-01-11T04:14:36.335Z,5.84
2019-01-11T04:17:06.188Z,5.94
2019-01-11T04:19:35.634Z,5.86
2019-01-11T04:22:14.947Z,5.77
2019-01-11T04:25:00.983Z,5.81
2019-01-11T04:27:31.236Z,5.97
2019-01-11T04:30:01.530Z,5.95
2019-01-11T04:32:31.298Z,5.97
2019-01-11T04:35:01.356Z,5.99
2019-01-11T04:37:31.268Z,6.00
2019-01-11T04:40:01.346Z,6.03
2019-01-11T04:42:31.469Z,5.97
2019-01-11T04:45:01.313Z,6.03
2019-01-11T04:47:31.430Z,6.03
2019-01-11T04:50:01.260Z,6.12
2019-01-11T04:52:31.346Z,6.21
2019-01-11T04:55:01.401Z,6.24
2019-01-11T04:57:31.347Z,6.24
2019-01-11T05:00:01.294Z,6.22
2019-01-11T05:02:31.486Z,6.26
2019-01-11T05:05:01.332Z,6.36
2019-01-11T05:07:31.333Z,6.37
2019-01-11T05:10:01.510Z,6.35
2019-01-11T05:12:31.722Z,6.48
2019-01-11T05:15:01.326Z,6.50
2019-01-11T05:17:31.858Z,6.51
2019-01-11T05:20:01.387Z,6.49
2019-01-11T05:22:31.405Z,6.59
2019-01-11T05:25:01.454Z,6.60
2019-01-11T05:27:31.457Z,6.61
2019-01-11T05:30:01.370Z,6.59
2019-01-11T05:32:31.489Z,6.62
2019-01-11T05:35:01.347Z,6.62
2019-01-11T05:37:31.387Z,6.75
2019-01-11T05:40:02.345Z,6.75
2019-01-11T05:42:31.792Z,6.80
2019-01-11T05:45:01.402Z,6.84
2019-01-11T05:47:31.431Z,6.83
2019-01-11T05:50:01.468Z,6.93
2019-01-11T05:52:31.480Z,6.87
2019-01-11T05:55:01.490Z,6.86
2019-01-11T05:57:31.430Z,6.96
2019-01-11T06:00:01.540Z,6.93
2019-01-11T06:02:31.585Z,6.99
2019-01-11T06:05:04.799Z,7.16
2019-01-11T06:07:59.323Z,7.21
2019-01-11T06:10:28.746Z,7.23
2019-01-11T06:12:58.150Z,7.19
2019-01-11T06:15:27.678Z,7.22
2019-01-11T06:17:57.117Z,7.28
2019-01-11T06:20:30.278Z,7.33
2019-01-11T06:22:57.991Z,7.39
2019-01-11T06:25:27.580Z,7.38
2019-01-11T06:27:57.036Z,7.47
2019-01-11T06:30:26.569Z,7.55
2019-01-11T06:32:55.986Z,7.57
2019-01-11T06:35:25.417Z,7.60
2019-01-11T06:37:54.872Z,7.57
2019-01-11T06:40:24.303Z,7.57
2019-01-11T06:42:53.884Z,7.63
2019-01-11T06:45:23.355Z,7.67
2019-01-11T06:47:52.754Z,7.69
2019-01-11T06:50:22.144Z,7.72
2019-01-11T06:52:51.622Z,7.69
2019-01-11T06:55:21.026Z,7.71
2019-01-11T06:57:50.467Z,7.75
2019-01-11T07:00:20.146Z,7.78
2019-01-11T07:02:49.553Z,7.69
2019-01-11T07:05:19.030Z,7.77
2019-01-11T07:07:48.728Z,7.76
2019-01-11T07:10:19.589Z,7.81
2019-01-11T07:12:49.006Z,7.91
2019-01-11T07:15:18.864Z,7.87
2019-01-11T07:17:48.461Z,7.94
2019-01-11T07:20:17.966Z,7.94
2019-01-11T07:22:47.515Z,7.99
2019-01-11T07:25:17.307Z,8.11
2019-01-11T07:28:01.101Z,8.15
2019-01-11T07:30:44.215Z,8.15
2019-01-11T07:33:15.322Z,8.21
2019-01-11T07:35:51.588Z,8.25
2019-01-11T07:38:21.019Z,8.17
2019-01-11T07:40:50.551Z,8.26
2019-01-11T07:43:20.056Z,8.27
2019-01-11T07:45:49.489Z,8.28
2019-01-11T07:48:18.996Z,8.35
2019-01-11T07:50:49.384Z,8.33
2019-01-11T07:53:18.974Z,8.45
2019-01-11T07:55:48.454Z,8.48
2019-01-11T07:58:17.865Z,8.52
2019-01-11T08:00:48.452Z,8.46
2019-01-11T08:03:17.944Z,8.46
2019-01-11T08:05:47.369Z,8.52
2019-01-11T08:08:16.776Z,8.54
2019-01-11T08:10:46.302Z,8.56
2019-01-11T08:13:15.733Z,8.53
2019-01-11T08:15:45.161Z,8.63
2019-01-11T08:18:15.335Z,8.61
2019-01-11T08:20:44.762Z,8.53
2019-01-11T08:23:14.153Z,8.67
2019-01-11T08:25:43.860Z,8.69
2019-01-11T08:28:13.721Z,8.74
2019-01-11T08:30:43.160Z,8.68
2019-01-11T08:33:18.474Z,8.81
2019-01-11T08:35:44.015Z,8.87
2019-01-11T08:38:13.637Z,8.90
2019-01-11T08:40:43.083Z,8.82
2019-01-11T08:43:12.551Z,8.90
2019-01-11T08:45:41.968Z,8.97
2019-01-11T08:48:13.072Z,9.04
2019-01-11T08:50:42.511Z,9.05
2019-01-11T08:53:11.990Z,9.02
2019-01-11T08:55:41.584Z,9.04
2019-01-11T08:58:11.160Z,9.05
2019-01-11T09:00:40.657Z,9.04
2019-01-11T09:03:10.293Z,9.03
2019-01-11T09:05:39.719Z,9.13
2019-01-11T09:08:09.192Z,9.07
2019-01-11T09:10:38.767Z,9.02
2019-01-11T09:13:08.184Z,9.08
2019-01-11T09:15:37.605Z,9.18
2019-01-11T09:18:14.009Z,9.21
2019-01-11T09:20:44.030Z,9.19
2019-01-11T09:23:13.636Z,9.16
2019-01-11T09:25:43.265Z,9.19
2019-01-11T09:28:12.668Z,9.08
2019-01-11T09:30:42.067Z,9.05
2019-01-11T09:33:11.596Z,9.09
2019-01-11T09:35:41.002Z,9.14
2019-01-11T09:38:10.703Z,9.09
2019-01-11T09:40:40.380Z,9.18
2019-01-11T09:43:09.834Z,9.17
2019-01-11T09:45:39.227Z,9.25
2019-01-11T09:48:08.862Z,9.24
2019-01-11T09:50:38.247Z,9.20
2019-01-11T09:53:07.716Z,9.18
2019-01-11T09:55:37.277Z,9.19
2019-01-11T09:58:06.725Z,9.23
2019-01-11T10:00:36.321Z,9.25
2019-01-11T10:03:08.263Z,9.27
2019-01-11T10:05:37.837Z,9.18
2019-01-11T10:08:07.737Z,9.24
2019-01-11T10:10:37.340Z,9.20
2019-01-11T10:13:06.745Z,9.12
2019-01-11T10:15:36.324Z,9.16
2019-01-11T10:18:05.969Z,9.08
2019-01-11T10:20:35.362Z,9.12
2019-01-11T10:23:04.769Z,9.17
2019-01-11T10:25:34.267Z,9.16
2019-01-11T10:28:03.786Z,9.23
2019-01-11T10:30:33.159Z,9.26
2019-01-11T10:33:02.605Z,9.16
2019-01-11T10:35:31.994Z,9.29
2019-01-11T10:38:02.017Z,9.36
2019-01-11T10:40:32.159Z,9.51
2019-01-11T10:43:01.941Z,9.51
2019-01-11T10:45:31.991Z,9.53
2019-01-11T10:48:01.992Z,9.48
2019-01-11T10:50:31.925Z,9.60
2019-01-11T10:53:02.000Z,9.61
2019-01-11T10:55:32.116Z,9.61
2019-01-11T10:58:01.926Z,9.71
2019-01-11T11:00:32.120Z,9.64
2019-01-11T11:03:02.398Z,9.64
2019-01-11T11:05:31.940Z,9.67
2019-01-11T11:08:01.972Z,9.55
2019-01-11T11:10:32.035Z,9.40
2019-01-11T11:13:02.310Z,9.46
2019-01-11T11:15:31.943Z,9.54
2019-01-11T11:18:02.031Z,9.61
2019-01-11T11:20:32.535Z,9.53
2019-01-11T11:23:02.021Z,9.49
2019-01-11T11:25:32.139Z,9.53
2019-01-11T11:28:02.092Z,9.50
2019-01-11T11:30:32.045Z,9.58
2019-01-11T11:33:03.409Z,9.60
2019-01-11T11:35:33.218Z,9.47
2019-01-11T11:38:02.692Z,9.50
2019-01-11T11:40:33.095Z,9.62
2019-01-11T11:43:02.478Z,9.68
2019-01-11T11:45:32.334Z,9.69
2019-01-11T11:48:02.180Z,9.69
2019-01-11T11:50:32.061Z,9.70
2019-01-11T11:53:02.431Z,9.75
2019-01-11T11:55:32.309Z,9.75
2019-01-11T11:58:02.068Z,9.85
2019-01-11T12:00:32.131Z,9.79
2019-01-11T12:03:02.229Z,9.77
2019-01-11T12:05:32.071Z,9.71
2019-01-11T12:08:02.057Z,9.71
2019-01-11T12:10:32.361Z,9.77
2019-01-11T12:13:02.069Z,9.64
2019-01-11T12:15:32.237Z,9.60
2019-01-11T12:18:02.309Z,9.54
2019-01-11T12:20:34.307Z,9.54
2019-01-11T12:23:03.915Z,9.61
2019-01-11T12:25:33.372Z,9.61
2019-01-11T12:28:02.845Z,9.66
2019-01-11T12:30:32.224Z,9.54
2019-01-11T12:33:02.227Z,9.66
2019-01-11T12:35:32.165Z,9.53
2019-01-11T12:38:02.183Z,9.44
2019-01-11T12:40:32.404Z,9.51
2019-01-11T12:43:02.182Z,9.59
2019-01-11T12:45:32.205Z,9.55
2019-01-11T12:48:02.378Z,9.60
2019-01-11T12:50:32.317Z,9.71
2019-01-11T12:53:02.205Z,9.76
2019-01-11T12:55:32.385Z,9.82
2019-01-11T12:58:02.214Z,9.79
2019-01-11T13:00:32.541Z,9.64
2019-01-11T13:03:02.278Z,9.68
2019-01-11T13:05:32.249Z,9.46
2019-01-11T13:08:02.233Z,9.53
2019-01-11T13:10:32.395Z,9.49
2019-01-11T13:13:02.292Z,9.48
2019-01-11T13:15:32.263Z,9.44
2019-01-11T13:18:02.432Z,9.45
2019-01-11T13:20:32.237Z,9.41
2019-01-11T13:23:02.269Z,9.44
2019-01-11T13:25:32.494Z,9.45
2019-01-11T13:28:02.249Z,9.37
2019-01-11T13:30:32.260Z,9.45
2019-01-11T13:33:02.365Z,9.49
2019-01-11T13:35:32.264Z,9.55
2019-01-11T13:38:02.354Z,9.52
2019-01-11T13:40:32.347Z,9.47
2019-01-11T13:43:02.288Z,9.53
2019-01-11T13:45:32.500Z,9.55
2019-01-11T13:48:02.439Z,9.56
2019-01-11T13:50:34.242Z,9.52
2019-01-11T13:53:03.914Z,9.48
2019-01-11T13:55:33.453Z,9.47
2019-01-11T13:58:03.127Z,9.48
2019-01-11T14:00:32.655Z,9.45
2019-01-11T14:03:02.583Z,9.38
2019-01-11T14:05:32.344Z,9.25
2019-01-11T14:08:02.450Z,9.29
2019-01-11T14:10:32.396Z,9.29
2019-01-11T14:13:02.579Z,9.38
2019-01-11T14:15:32.371Z,9.34
2019-01-11T14:18:04.706Z,9.25
2019-01-11T14:20:34.169Z,9.24
2019-01-11T14:23:03.696Z,9.35
2019-01-11T14:25:33.248Z,9.42
2019-01-11T14:28:02.666Z,9.42
2019-01-11T14:30:32.396Z,9.35
2019-01-11T14:33:02.454Z,9.24
2019-01-11T14:35:32.373Z,9.30
2019-01-11T14:38:02.403Z,9.42
2019-01-11T14:40:35.270Z,9.42
2019-01-11T14:43:04.712Z,9.25
2019-01-11T14:45:34.124Z,9.34
2019-01-11T14:48:03.672Z,9.27
2019-01-11T14:50:33.166Z,9.30
2019-01-11T14:53:02.604Z,9.26
2019-01-11T14:55:32.758Z,9.28
2019-01-11T14:58:02.412Z,9.29
2019-01-11T15:00:32.406Z,9.27
2019-01-11T15:03:02.486Z,9.15
2019-01-11T15:05:32.440Z,9.19
2019-01-11T15:08:02.457Z,9.22
2019-01-11T15:10:32.607Z,9.12
2019-01-11T15:13:02.519Z,9.06
2019-01-11T15:15:32.479Z,9.04
2019-01-11T15:18:02.553Z,9.11
2019-01-11T15:20:32.518Z,9.17
2019-01-11T15:23:02.471Z,9.07
2019-01-11T15:25:33.873Z,9.07
2019-01-11T15:28:03.613Z,8.96
2019-01-11T15:30:33.014Z,8.97
2019-01-11T15:33:02.545Z,9.05
2019-01-11T15:35:32.460Z,9.10
2019-01-11T15:38:02.461Z,8.94
2019-01-11T15:40:36.438Z,8.98
2019-01-11T15:43:03.873Z,9.07
2019-01-11T15:45:33.305Z,8.96
2019-01-11T15:48:02.882Z,8.98
2019-01-11T15:50:58.350Z,8.96
2019-01-11T15:53:35.842Z,8.95
2019-01-11T15:56:06.870Z,8.93
2019-01-11T15:58:36.370Z,8.97
2019-01-11T16:01:06.083Z,8.99
2019-01-11T16:03:35.545Z,9.05
2019-01-11T16:06:23.592Z,9.10
2019-01-11T16:10:00.047Z,9.09
2019-01-11T16:13:19.211Z,8.98
2019-01-11T16:16:14.864Z,8.88
2019-01-11T16:18:44.375Z,8.99
2019-01-11T16:21:13.808Z,9.04
2019-01-11T16:23:43.378Z,8.98
2019-01-11T16:26:12.937Z,8.97
2019-01-11T16:28:42.415Z,8.95
2019-01-11T16:31:11.897Z,8.95
2019-01-11T16:33:41.458Z,8.93
2019-01-11T16:36:10.919Z,8.84
2019-01-11T16:38:40.290Z,8.88
2019-01-11T16:41:10.251Z,8.84
2019-01-11T16:43:39.707Z,8.79
2019-01-11T16:46:09.106Z,8.76
2019-01-11T16:48:38.687Z,8.78
2019-01-11T16:51:08.125Z,8.81
2019-01-11T16:53:37.502Z,8.76
2019-01-11T16:56:06.956Z,8.77
2019-01-11T16:58:36.326Z,8.89
2019-01-11T17:01:05.803Z,8.99
2019-01-11T17:03:35.242Z,8.94
2019-01-11T17:06:05.025Z,8.93
2019-01-11T17:08:34.479Z,8.81
2019-01-11T17:11:03.934Z,8.82
2019-01-11T17:13:33.366Z,8.70
2019-01-11T17:16:02.742Z,8.76
2019-01-11T17:18:32.886Z,8.80
2019-01-11T17:21:02.684Z,8.86
2019-01-11T17:23:32.691Z,8.80
2019-01-11T17:26:02.895Z,8.75
2019-01-11T17:28:33.283Z,8.80
2019-01-11T17:31:03.035Z,8.85
2019-01-11T17:33:32.860Z,8.74
2019-01-11T17:36:02.725Z,8.76
2019-01-11T17:38:32.727Z,8.84
2019-01-11T17:41:02.801Z,8.73
2019-01-11T17:43:32.737Z,8.65
2019-01-11T17:46:03.086Z,8.63
2019-01-11T17:48:33.025Z,8.66
2019-01-11T17:51:02.716Z,8.73
2019-01-11T17:53:32.737Z,8.65
2019-01-11T17:56:03.040Z,8.63
2019-01-11T17:58:32.806Z,8.60
2019-01-11T18:01:02.817Z,8.66
2019-01-11T18:03:33.028Z,8.70
2019-01-11T18:06:03.666Z,8.63
2019-01-11T18:08:33.189Z,8.67
2019-01-11T18:11:02.937Z,8.70
2019-01-11T18:13:32.784Z,8.69
2019-01-11T18:16:02.765Z,8.63
2019-01-11T18:18:32.968Z,8.70
2019-01-11T18:21:02.797Z,8.66
2019-01-11T18:23:32.784Z,8.66
2019-01-11T18:26:02.926Z,8.72
2019-01-11T18:28:32.834Z,8.56
2019-01-11T18:31:02.795Z,8.69
2019-01-11T18:33:32.981Z,8.71
2019-01-11T18:36:02.826Z,8.76
2019-01-11T18:38:32.832Z,8.70
2019-01-11T18:41:02.886Z,8.67
2019-01-11T18:43:32.898Z,8.57
2019-01-11T18:46:02.783Z,8.47
2019-01-11T18:48:32.928Z,8.46
2019-01-11T18:51:02.827Z,8.39
2019-01-11T18:53:32.934Z,8.22
2019-01-11T18:56:05.587Z,8.16
2019-01-11T18:58:34.100Z,8.21
2019-01-11T19:01:03.516Z,8.11
2019-01-11T19:03:33.067Z,8.02
2019-01-11T19:06:02.819Z,8.01
2019-01-11T19:08:33.039Z,7.90
2019-01-11T19:11:02.908Z,7.93
2019-01-11T19:13:32.846Z,8.00
2019-01-11T19:16:02.833Z,7.89
2019-01-11T19:18:32.876Z,7.95
2019-01-11T19:21:04.694Z,8.00
2019-01-11T19:23:34.102Z,8.06
2019-01-11T19:26:03.598Z,8.09
2019-01-11T19:28:32.967Z,8.06
2019-01-11T19:31:02.863Z,7.99
2019-01-11T19:33:32.923Z,8.01
2019-01-11T19:36:02.954Z,7.96
2019-01-11T19:38:32.870Z,7.97
2019-01-11T19:41:02.997Z,7.97
2019-01-11T19:43:32.945Z,7.97
2019-01-11T19:46:02.974Z,8.00
2019-01-11T19:48:33.039Z,7.84
2019-01-11T19:51:02.928Z,7.83
2019-01-11T19:53:32.884Z,8.03
2019-01-11T19:56:03.022Z,7.95
2019-01-11T19:58:32.929Z,7.98
2019-01-11T20:01:03.030Z,7.98
2019-01-11T20:03:33.014Z,8.01
2019-01-11T20:06:03.042Z,8.06
2019-01-11T20:08:32.982Z,8.06
2019-01-11T20:11:03.196Z,8.09
2019-01-11T20:13:32.982Z,8.07
2019-01-11T20:16:02.910Z,8.06
2019-01-11T20:18:33.009Z,8.12
2019-01-11T20:21:02.945Z,8.03
2019-01-11T20:23:36.563Z,7.89
2019-01-11T20:26:04.807Z,7.92
2019-01-11T20:28:34.210Z,7.84
2019-01-11T20:31:03.626Z,7.88
2019-01-11T20:33:33.170Z,7.86
2019-01-11T20:36:02.981Z,7.78
2019-01-11T20:38:33.413Z,7.76
2019-01-11T20:41:03.080Z,7.81
2019-01-11T20:43:33.119Z,7.76
2019-01-11T20:46:03.558Z,7.67
2019-01-11T20:48:33.156Z,7.67
2019-01-11T20:51:03.045Z,7.74
2019-01-11T20:53:33.027Z,7.70
2019-01-11T20:56:03.167Z,7.69
2019-01-11T20:58:33.033Z,7.57
2019-01-11T21:01:03.715Z,7.57
2019-01-11T21:03:33.255Z,7.56
2019-01-11T21:06:03.055Z,7.69
2019-01-11T21:08:33.039Z,7.63
2019-01-11T21:11:03.158Z,7.68
2019-01-11T21:13:33.208Z,7.70
2019-01-11T21:16:03.219Z,7.76
2019-01-11T21:18:33.127Z,7.63
2019-01-11T21:21:03.083Z,7.57
2019-01-11T21:23:33.062Z,7.62
2019-01-11T21:26:03.177Z,7.56
2019-01-11T21:28:33.137Z,7.54
2019-01-11T21:31:03.126Z,7.56
2019-01-11T21:33:33.263Z,7.52
2019-01-11T21:36:03.132Z,7.51
2019-01-11T21:38:33.100Z,7.46
2019-01-11T21:41:03.162Z,7.46
2019-01-11T21:43:33.124Z,7.41
2019-01-11T21:46:03.751Z,7.53
2019-01-11T21:48:33.314Z,7.55
2019-01-11T21:51:03.170Z,7.58
2019-01-11T21:53:33.127Z,7.52
2019-01-11T21:56:03.219Z,7.60
2019-01-11T21:58:33.251Z,7.57
2019-01-11T22:01:03.155Z,7.78
2019-01-11T22:03:33.256Z,7.78
2019-01-11T22:06:03.197Z,7.81
2019-01-11T22:08:33.172Z,7.73
2019-01-11T22:11:03.333Z,7.74
2019-01-11T22:13:33.181Z,7.69
2019-01-11T22:16:03.289Z,7.61
2019-01-11T22:18:33.509Z,7.66
2019-01-11T22:21:03.183Z,7.65
2019-01-11T22:23:33.205Z,7.69
2019-01-11T22:26:03.364Z,7.70
2019-01-11T22:28:33.335Z,7.72
2019-01-11T22:31:03.213Z,7.78
2019-01-11T22:33:33.276Z,7.85
2019-01-11T22:36:03.229Z,7.83
2019-01-11T22:38:33.284Z,7.70
2019-01-11T22:41:03.579Z,7.70
2019-01-11T22:43:36.594Z,7.76
2019-01-11T22:46:06.680Z,7.80
2019-01-11T22:48:36.264Z,7.75
2019-01-11T22:51:05.669Z,7.89
2019-01-11T22:53:35.040Z,7.85
2019-01-11T22:56:04.803Z,7.82
2019-01-11T22:58:34.193Z,7.86
2019-01-11T23:01:41.887Z,7.91
2019-01-11T23:04:11.298Z,7.95
2019-01-11T23:07:00.707Z,7.94
2019-01-11T23:09:38.654Z,7.91
2019-01-11T23:12:27.388Z,7.95
2019-01-11T23:14:56.789Z,7.82
2019-01-11T23:17:59.326Z,7.87
2019-01-11T23:20:28.760Z,7.98
2019-01-11T23:22:58.137Z,8.01
2019-01-11T23:25:27.625Z,7.97
2019-01-11T23:27:57.021Z,7.99
2019-01-11T23:30:26.426Z,7.98
2019-01-11T23:32:55.943Z,8.10
2019-01-11T23:35:25.373Z,8.06
2019-01-11T23:37:54.774Z,8.05
2019-01-11T23:40:24.327Z,7.96
2019-01-11T23:42:53.729Z,8.05
2019-01-11T23:45:23.103Z,7.98
2019-01-11T23:47:52.582Z,8.12
2019-01-11T23:50:21.946Z,8.17
2019-01-11T23:52:51.349Z,8.06
2019-01-11T23:55:20.770Z,8.10
2019-01-11T23:57:50.156Z,8.12
